This is the latest recevied weather packets stored in our database for station/object CE4ERM-13. If no packets are shown the sender has not sent any weather packets the latest 10 day(s).
| Time | Temp. | Humidity | Pressure | Rain* | Wind** | Luminosity | Snow |
|---|---|---|---|---|---|---|---|
| 1778096375 | 22.78° C | 54% | 1018.6 hPa | - | - | - | - |
| 1778095955 | 21.11° C | 47% | 1022.4 hPa | - | - | - | - |
| 1778095774 | 23.33° C | 54% | 1019.1 hPa | - | - | - | - |
| 1778095355 | 21.11° C | 48% | 1019 hPa | - | - | - | - |
| 1778094755 | 21.11° C | 49% | 1019.9 hPa | - | - | - | - |
| 1778094573 | 23.89° C | 52% | 1020.6 hPa | - | - | - | - |
| 1778094155 | 21.11° C | 49% | 1019.4 hPa | - | - | - | - |
| 1778093554 | 21.11° C | 49% | 1022.6 hPa | - | - | - | - |
| 1778093371 | 23.89° C | 52% | 1020.5 hPa | - | - | - | - |
| 1778092771 | 25° C | 49% | 1019.8 hPa | - | - | - | - |
| 1778091753 | 21.11° C | 49% | 1019.1 hPa | - | - | - | - |
| 1778091571 | 22.78° C | 57% | 1018.3 hPa | - | - | - | - |
| 1778091153 | 21.11° C | 49% | 1021.1 hPa | - | - | - | - |
| 1778090971 | 22.22° C | 59% | 1018.3 hPa | - | - | - | - |
| 1778090553 | 21.11° C | 49% | 1021.3 hPa | - | - | - | - |
| 1778089952 | 21.11° C | 50% | 1019.9 hPa | - | - | - | - |
| 1778089771 | 23.89° C | 56% | 1020.2 hPa | - | - | - | - |
| 1778089171 | 23.89° C | 55% | 1020.6 hPa | - | - | - | - |
| 1778088752 | 21.11° C | 49% | 1017.9 hPa | - | - | - | - |
| 1778088570 | 23.89° C | 57% | 1019.4 hPa | - | - | - | - |
| 1778087970 | 22.22° C | 61% | 1017.5 hPa | - | - | - | - |
| 1778087369 | 22.22° C | 61% | 1019.1 hPa | - | - | - | - |
| 1778086951 | 20.56° C | 50% | 1019.7 hPa | - | - | - | - |
| 1778086769 | 22.22° C | 62% | 1018.8 hPa | - | - | - | - |
| 1778086351 | 20.56° C | 49% | 1021.3 hPa | - | - | - | - |
* Rain since midnight (hover to see other rain measurements)
** Current wind speed in m/s (hover to see current wind gust speed)